weather.gov     
National Weather Service

Terminal Aerodrome Forecast
NWS Homepage
This page is being discontinued on March 12, 2014.
The same data is available at this site. Please update your bookmarks.
Thank you, and we apologize for the inconvenience.
Please send an email to SR-SRH.Webmaster@noaa.gov with any concerns.


Current Version
Previous Version:    01  02  03  04  05  06  07  08  09  10  11  12  13  14  15  16  17  18  19  20  21  22  23  24  25  26  27  28  29  30  
   31  32  33  34  35  36  37  38  39  40  41  42  43  44  45  
[Printable]
142
FTUS46 KMFR 182300
TAFOTH
TAF
KOTH 182338Z 1900/1924 36012G20KT P6SM BKN150
     FM190400 35005KT P6SM SCT100 BKN150
     FM191100 17011G20KT P6SM SCT010 OVC050
     FM191500 18018G28KT P6SM -RA BKN025 OVC040
     FM191800 21014G20KT P6SM -RA BKN025 OVC040
     FM192000 24012G18KT P6SM -SHRA SCT015 BKN025 OVC040=


U.S. Dept. of Commerce
NOAA National Weather Service
1325 East West Highway
Silver Spring, MD 20910
E-mail: w-nws.webmaster@noaa.gov
Page last modified: May 16, 2007
NATIONAL WEATHER SERVICE: for Safety, for Work, for Fun - FOR LIFE